createdAt,value
2022-09-12T00:00:25.660Z,15.16
2022-09-12T00:01:25.775Z,15.19
2022-09-12T00:02:25.645Z,15.18
2022-09-12T00:03:25.608Z,15.18
2022-09-12T00:04:25.595Z,15.16
2022-09-12T00:05:25.571Z,15.16
2022-09-12T00:06:25.571Z,15.16
2022-09-12T00:07:25.560Z,15.13
2022-09-12T00:08:25.558Z,15.13
2022-09-12T00:09:25.559Z,15.12
2022-09-12T00:10:25.523Z,15.13
2022-09-12T00:11:25.509Z,15.15
2022-09-12T00:12:25.520Z,15.16
2022-09-12T00:13:25.500Z,15.15
2022-09-12T00:14:25.489Z,15.15
2022-09-12T00:15:25.491Z,15.15
2022-09-12T00:16:25.516Z,15.18
2022-09-12T00:17:25.445Z,15.16
2022-09-12T00:18:25.447Z,15.18
2022-09-12T00:19:25.439Z,15.16
2022-09-12T00:20:25.420Z,15.16
2022-09-12T00:21:25.408Z,15.16
2022-09-12T00:22:25.405Z,15.13
2022-09-12T00:23:25.386Z,15.11
2022-09-12T00:24:25.384Z,15.09
2022-09-12T00:25:25.369Z,15.07
2022-09-12T00:26:25.355Z,15.09
2022-09-12T00:27:25.348Z,15.11
2022-09-12T00:28:25.353Z,15.07
2022-09-12T00:29:25.326Z,15.07
2022-09-12T00:30:25.309Z,15.11
2022-09-12T00:31:25.360Z,15.07
2022-09-12T00:32:25.297Z,15.11
2022-09-12T00:33:25.280Z,15.09
2022-09-12T00:34:25.319Z,15.09
2022-09-12T00:35:25.300Z,15.09
2022-09-12T00:36:25.245Z,15.11
2022-09-12T00:37:25.402Z,15.09
2022-09-12T00:38:25.235Z,15.07
2022-09-12T00:39:25.226Z,15.07
2022-09-12T00:40:25.204Z,15.07
2022-09-12T00:41:25.207Z,15.09
2022-09-12T00:42:25.186Z,15.09
2022-09-12T00:43:25.173Z,15.05
2022-09-12T00:44:25.174Z,15.05
2022-09-12T00:45:25.198Z,15.05
2022-09-12T00:46:25.137Z,15.04
2022-09-12T00:47:25.151Z,15.04
2022-09-12T00:48:25.119Z,15.04
2022-09-12T00:49:25.141Z,15.04
2022-09-12T00:50:25.122Z,15.01
2022-09-12T00:51:25.123Z,15.00
2022-09-12T00:52:25.073Z,15.00
2022-09-12T00:53:25.096Z,15.00
2022-09-12T00:54:25.064Z,14.98
2022-09-12T00:55:25.045Z,14.97
2022-09-12T00:56:25.047Z,14.97
2022-09-12T00:57:25.040Z,14.95
2022-09-12T00:58:25.006Z,14.97
2022-09-12T00:59:25.016Z,14.95
2022-09-12T01:00:24.991Z,14.93
2022-09-12T01:01:27.327Z,14.91
2022-09-12T01:02:25.004Z,14.90
2022-09-12T01:03:24.974Z,14.87
2022-09-12T01:04:24.988Z,14.86
2022-09-12T01:05:24.956Z,14.86
2022-09-12T01:06:24.923Z,14.86
2022-09-12T01:07:24.912Z,14.86
2022-09-12T01:08:24.905Z,14.87
2022-09-12T01:09:24.920Z,14.87
2022-09-12T01:10:24.877Z,14.86
2022-09-12T01:11:24.876Z,14.86
2022-09-12T01:12:24.865Z,14.85
2022-09-12T01:13:24.856Z,14.86
2022-09-12T01:14:24.846Z,14.86
2022-09-12T01:15:24.832Z,14.85
2022-09-12T01:16:24.860Z,14.86
2022-09-12T01:17:24.809Z,14.86
2022-09-12T01:18:24.793Z,14.86
2022-09-12T01:19:24.805Z,14.86
2022-09-12T01:20:24.778Z,14.85
2022-09-12T01:21:24.771Z,14.86
2022-09-12T01:22:24.748Z,14.87
2022-09-12T01:23:24.750Z,14.87
2022-09-12T01:24:24.747Z,14.87
2022-09-12T01:25:24.735Z,14.87
2022-09-12T01:26:24.711Z,14.85
2022-09-12T01:27:24.704Z,14.83
2022-09-12T01:28:24.690Z,14.80
2022-09-12T01:29:24.691Z,14.79
2022-09-12T01:30:24.680Z,14.79
2022-09-12T01:31:24.661Z,14.78
2022-09-12T01:32:24.679Z,14.80
2022-09-12T01:33:24.647Z,14.75
2022-09-12T01:34:24.646Z,14.75
2022-09-12T01:35:24.611Z,14.78
2022-09-12T01:36:24.628Z,14.75
2022-09-12T01:37:24.601Z,14.75
2022-09-12T01:38:24.586Z,14.74
2022-09-12T01:39:24.655Z,14.71
2022-09-12T01:40:24.562Z,14.69
2022-09-12T01:41:24.634Z,14.71
2022-09-12T01:42:24.643Z,14.71
2022-09-12T01:43:24.539Z,14.71
2022-09-12T01:44:24.530Z,14.69
2022-09-12T01:45:24.526Z,14.69
2022-09-12T01:46:24.502Z,14.71
2022-09-12T01:47:24.488Z,14.71
2022-09-12T01:48:24.479Z,14.71
2022-09-12T01:49:24.584Z,14.71
2022-09-12T01:50:24.465Z,14.71
2022-09-12T01:51:24.449Z,14.74
2022-09-12T01:52:24.585Z,14.71
2022-09-12T01:53:24.665Z,14.67
2022-09-12T01:54:24.597Z,14.69
2022-09-12T01:55:24.407Z,14.69
2022-09-12T01:56:24.396Z,14.69
2022-09-12T01:57:24.381Z,14.71
2022-09-12T01:58:24.365Z,14.66
2022-09-12T01:59:24.598Z,14.66
2022-09-12T02:00:24.351Z,14.63
2022-09-12T02:01:24.387Z,14.61
2022-09-12T02:02:24.636Z,14.60
2022-09-12T02:03:24.324Z,14.61
2022-09-12T02:04:24.313Z,14.61
2022-09-12T02:05:24.294Z,14.61
2022-09-12T02:06:24.293Z,14.60
2022-09-12T02:07:24.284Z,14.60
2022-09-12T02:08:24.260Z,14.60
2022-09-12T02:09:24.597Z,14.60
2022-09-12T02:10:24.241Z,14.60
2022-09-12T02:11:24.238Z,14.59
2022-09-12T02:12:24.213Z,14.59
2022-09-12T02:13:24.220Z,14.60
2022-09-12T02:14:24.215Z,14.60
2022-09-12T02:15:24.187Z,14.59
2022-09-12T02:16:24.213Z,14.60
2022-09-12T02:17:24.167Z,14.61
2022-09-12T02:18:24.151Z,14.61
2022-09-12T02:19:24.165Z,14.60
2022-09-12T02:20:44.347Z,14.60
2022-09-12T02:21:24.136Z,14.57
2022-09-12T02:22:24.120Z,14.53
2022-09-12T02:23:24.106Z,14.52
2022-09-12T02:24:24.112Z,14.52
2022-09-12T02:25:24.097Z,14.52
2022-09-12T02:26:24.079Z,14.49
2022-09-12T02:27:24.077Z,14.46
2022-09-12T02:28:24.056Z,14.44
2022-09-12T02:29:24.062Z,14.44
2022-09-12T02:30:24.064Z,14.42
2022-09-12T02:31:24.035Z,14.42
2022-09-12T02:32:24.010Z,14.41
2022-09-12T02:33:24.000Z,14.42
2022-09-12T02:34:24.088Z,14.39
2022-09-12T02:35:24.030Z,14.39
2022-09-12T02:36:23.970Z,14.35
2022-09-12T02:37:23.966Z,14.35
2022-09-12T02:38:23.949Z,14.35
2022-09-12T02:39:23.956Z,14.36
2022-09-12T02:40:24.053Z,14.35
2022-09-12T02:41:23.993Z,14.36
2022-09-12T02:42:23.901Z,14.34
2022-09-12T02:43:23.891Z,14.34
2022-09-12T02:44:23.903Z,14.31
2022-09-12T02:45:23.883Z,14.31
2022-09-12T02:46:23.860Z,14.30
2022-09-12T02:47:23.851Z,14.30
2022-09-12T02:48:23.842Z,14.30
2022-09-12T02:49:23.843Z,14.30
2022-09-12T02:50:23.819Z,14.27
2022-09-12T02:51:23.991Z,14.30
2022-09-12T02:52:23.803Z,14.29
2022-09-12T02:53:24.022Z,14.29
2022-09-12T02:54:23.791Z,14.30
2022-09-12T02:55:23.766Z,14.31
2022-09-12T02:56:23.748Z,14.31
2022-09-12T02:57:23.743Z,14.31
2022-09-12T02:58:23.743Z,14.31
2022-09-12T02:59:23.748Z,14.30
2022-09-12T03:00:23.987Z,14.31
2022-09-12T03:01:23.739Z,14.35
2022-09-12T03:02:23.717Z,14.35
2022-09-12T03:03:23.754Z,14.35
2022-09-12T03:04:23.803Z,14.38
2022-09-12T03:05:23.821Z,14.38
2022-09-12T03:06:23.650Z,14.41
2022-09-12T03:07:23.736Z,14.42
2022-09-12T03:08:23.628Z,14.41
2022-09-12T03:09:23.627Z,14.41
2022-09-12T03:10:23.621Z,14.41
2022-09-12T03:11:23.603Z,14.39
2022-09-12T03:12:23.589Z,14.41
2022-09-12T03:13:23.584Z,14.39
2022-09-12T03:14:23.567Z,14.39
2022-09-12T03:15:23.552Z,14.38
2022-09-12T03:16:23.597Z,14.38
2022-09-12T03:17:23.539Z,14.39
2022-09-12T03:18:23.565Z,14.38
2022-09-12T03:19:23.526Z,14.36
2022-09-12T03:20:23.505Z,14.34
2022-09-12T03:21:23.506Z,14.31
2022-09-12T03:22:23.487Z,14.27
2022-09-12T03:23:23.478Z,14.27
2022-09-12T03:24:23.460Z,14.27
2022-09-12T03:25:23.467Z,14.26
2022-09-12T03:26:23.439Z,14.27
2022-09-12T03:27:23.433Z,14.27
2022-09-12T03:28:23.418Z,14.27
2022-09-12T03:29:23.426Z,14.27
2022-09-12T03:30:23.459Z,14.29
2022-09-12T03:31:23.384Z,14.24
2022-09-12T03:32:23.373Z,14.26
2022-09-12T03:33:23.360Z,14.26
2022-09-12T03:34:23.368Z,14.27
2022-09-12T03:35:23.421Z,14.26
2022-09-12T03:36:23.336Z,14.21
2022-09-12T03:37:23.334Z,14.21
2022-09-12T03:38:23.304Z,14.19
2022-09-12T03:39:23.320Z,14.16
2022-09-12T03:40:23.296Z,14.16
2022-09-12T03:41:23.276Z,14.16
2022-09-12T03:42:23.264Z,14.17
2022-09-12T03:43:23.249Z,14.16
2022-09-12T03:44:23.255Z,14.19
2022-09-12T03:45:23.244Z,14.19
2022-09-12T03:46:23.229Z,14.17
2022-09-12T03:47:23.209Z,14.17
2022-09-12T03:48:23.198Z,14.16
2022-09-12T03:49:23.223Z,14.16
2022-09-12T03:50:23.189Z,14.16
2022-09-12T03:51:23.199Z,14.13
2022-09-12T03:52:23.161Z,14.12
2022-09-12T03:53:23.173Z,14.11
2022-09-12T03:54:23.180Z,14.08
2022-09-12T03:55:23.130Z,14.11
2022-09-12T03:56:23.112Z,14.11
2022-09-12T03:57:23.117Z,14.09
2022-09-12T03:58:23.093Z,14.11
2022-09-12T03:59:23.163Z,14.09
2022-09-12T04:00:23.077Z,14.11
2022-09-12T04:01:23.094Z,14.11
2022-09-12T04:02:23.122Z,14.06
2022-09-12T04:03:23.061Z,14.06
2022-09-12T04:04:23.047Z,14.06
2022-09-12T04:05:23.017Z,14.06
2022-09-12T04:06:23.005Z,14.06
2022-09-12T04:07:22.999Z,14.06
2022-09-12T04:08:22.937Z,14.06
2022-09-12T04:09:22.992Z,14.05
2022-09-12T04:10:22.969Z,14.05
2022-09-12T04:11:22.961Z,14.04
2022-09-12T04:12:22.943Z,14.06
2022-09-12T04:13:22.947Z,14.05
2022-09-12T04:14:22.897Z,14.06
2022-09-12T04:15:22.882Z,14.06
2022-09-12T04:16:22.877Z,14.05
2022-09-12T04:17:22.843Z,14.06
2022-09-12T04:18:22.832Z,14.06
2022-09-12T04:19:22.832Z,14.05
2022-09-12T04:20:22.813Z,14.05
2022-09-12T04:21:22.791Z,14.06
2022-09-12T04:22:22.775Z,14.05
2022-09-12T04:23:22.784Z,14.05
2022-09-12T04:24:22.775Z,14.06
2022-09-12T04:25:22.779Z,14.05
2022-09-12T04:26:22.741Z,14.05
2022-09-12T04:27:22.733Z,14.08
2022-09-12T04:28:22.718Z,14.06
2022-09-12T04:29:22.758Z,14.06
2022-09-12T04:30:22.735Z,14.05
2022-09-12T04:31:22.693Z,14.05
2022-09-12T04:32:22.677Z,14.05
2022-09-12T04:33:22.674Z,14.04
2022-09-12T04:34:22.682Z,14.02
2022-09-12T04:35:22.660Z,14.01
2022-09-12T04:36:22.674Z,13.99
2022-09-12T04:37:22.622Z,13.99
2022-09-12T04:38:22.658Z,13.96
2022-09-12T04:39:22.611Z,13.99
2022-09-12T04:40:22.599Z,13.99
2022-09-12T04:41:22.579Z,13.99
2022-09-12T04:42:22.571Z,13.99
2022-09-12T04:43:22.584Z,14.01
2022-09-12T04:44:22.590Z,14.01
2022-09-12T04:45:22.537Z,14.02
2022-09-12T04:46:22.526Z,14.04
2022-09-12T04:47:22.519Z,14.02
2022-09-12T04:48:22.516Z,14.04
2022-09-12T04:49:22.667Z,14.04
2022-09-12T04:50:22.486Z,14.06
2022-09-12T04:51:22.473Z,14.06
2022-09-12T04:52:22.457Z,14.08
2022-09-12T04:53:22.461Z,14.08
2022-09-12T04:54:22.439Z,14.09
2022-09-12T04:55:22.440Z,14.11
2022-09-12T04:56:22.416Z,14.11
2022-09-12T04:57:22.413Z,14.12
2022-09-12T04:58:22.420Z,14.11
2022-09-12T04:59:22.393Z,14.12
2022-09-12T05:00:22.378Z,14.12
2022-09-12T05:01:22.431Z,14.11
2022-09-12T05:02:22.416Z,14.11
2022-09-12T05:03:22.355Z,14.12
2022-09-12T05:04:22.352Z,14.12
2022-09-12T05:05:22.318Z,14.12
2022-09-12T05:06:22.329Z,14.13
2022-09-12T05:07:22.304Z,14.12
2022-09-12T05:08:22.311Z,14.12
2022-09-12T05:09:22.612Z,14.17
2022-09-12T05:10:22.557Z,14.16
2022-09-12T05:11:25.459Z,14.16
2022-09-12T05:12:22.255Z,14.19
2022-09-12T05:13:22.249Z,14.17
2022-09-12T05:14:22.255Z,14.20
2022-09-12T05:15:22.228Z,14.21
2022-09-12T05:16:22.247Z,14.23
2022-09-12T05:17:22.195Z,14.23
2022-09-12T05:18:22.207Z,14.26
2022-09-12T05:19:22.178Z,14.26
2022-09-12T05:20:22.165Z,14.29
2022-09-12T05:21:22.146Z,14.30
2022-09-12T05:22:22.146Z,14.29
2022-09-12T05:23:22.130Z,14.29
2022-09-12T05:24:22.143Z,14.31
2022-09-12T05:25:22.119Z,14.30
2022-09-12T05:26:22.107Z,14.35
2022-09-12T05:27:22.111Z,14.35
2022-09-12T05:28:22.086Z,14.35
2022-09-12T05:29:22.094Z,14.38
2022-09-12T05:30:22.176Z,14.39
2022-09-12T05:31:22.043Z,14.41
2022-09-12T05:32:22.036Z,14.44
2022-09-12T05:33:25.107Z,14.44
2022-09-12T05:34:22.030Z,14.46
2022-09-12T05:35:22.013Z,14.46
2022-09-12T05:36:22.024Z,14.49
2022-09-12T05:37:21.986Z,14.52
2022-09-12T05:38:21.976Z,14.53
2022-09-12T05:39:22.142Z,14.54
2022-09-12T05:40:21.950Z,14.53
2022-09-12T05:41:24.799Z,14.54
2022-09-12T05:42:21.989Z,14.57
2022-09-12T05:43:21.922Z,14.57
2022-09-12T05:44:21.926Z,14.60
2022-09-12T05:45:22.089Z,14.61
2022-09-12T05:46:21.902Z,14.61
2022-09-12T05:47:21.880Z,14.63
2022-09-12T05:48:21.889Z,14.64
2022-09-12T05:49:21.880Z,14.66
2022-09-12T05:50:21.884Z,14.67
2022-09-12T05:51:21.955Z,14.69
2022-09-12T05:52:21.826Z,14.69
2022-09-12T05:53:21.905Z,14.72
2022-09-12T05:54:21.829Z,14.75
2022-09-12T05:55:21.824Z,14.78
2022-09-12T05:56:21.783Z,14.80
2022-09-12T05:57:21.772Z,14.83
2022-09-12T05:58:21.764Z,14.82
2022-09-12T05:59:21.777Z,14.83
2022-09-12T06:00:21.759Z,14.85
2022-09-12T06:01:21.754Z,14.86
2022-09-12T06:02:21.781Z,14.86
2022-09-12T06:03:21.706Z,14.90
2022-09-12T06:04:21.798Z,14.93
2022-09-12T06:05:21.709Z,14.91
2022-09-12T06:06:21.680Z,14.93
2022-09-12T06:07:21.668Z,14.91
2022-09-12T06:08:21.662Z,14.94
2022-09-12T06:09:21.664Z,14.95
2022-09-12T06:10:21.779Z,14.97
2022-09-12T06:11:21.626Z,15.00
2022-09-12T06:12:21.642Z,15.01
2022-09-12T06:13:21.595Z,15.01
2022-09-12T06:14:21.676Z,15.03
2022-09-12T06:15:21.576Z,15.04
2022-09-12T06:16:21.711Z,15.07
2022-09-12T06:17:21.571Z,15.05
2022-09-12T06:18:21.579Z,15.07
2022-09-12T06:19:21.556Z,15.09
2022-09-12T06:20:21.530Z,15.11
2022-09-12T06:21:21.524Z,15.13
2022-09-12T06:22:21.517Z,15.13
2022-09-12T06:23:21.544Z,15.15
2022-09-12T06:24:21.526Z,15.16
2022-09-12T06:25:21.475Z,15.18
2022-09-12T06:26:21.644Z,15.20
2022-09-12T06:27:21.462Z,15.23
2022-09-12T06:28:21.447Z,15.27
2022-09-12T06:29:21.455Z,15.28
2022-09-12T06:30:25.232Z,15.33
2022-09-12T06:31:21.409Z,15.35
2022-09-12T06:32:21.398Z,15.37
2022-09-12T06:33:21.393Z,15.41
2022-09-12T06:34:21.403Z,15.44
2022-09-12T06:35:21.368Z,15.49
2022-09-12T06:36:21.366Z,15.51
2022-09-12T06:37:21.344Z,15.52
2022-09-12T06:38:21.333Z,15.56
2022-09-12T06:39:21.340Z,15.59
2022-09-12T06:40:21.368Z,15.62
2022-09-12T06:41:21.314Z,15.67
2022-09-12T06:42:21.292Z,15.68
2022-09-12T06:43:21.287Z,15.71
2022-09-12T06:44:21.290Z,15.74
2022-09-12T06:45:21.280Z,15.78
2022-09-12T06:46:21.354Z,15.80
2022-09-12T06:47:21.242Z,15.85
2022-09-12T06:48:21.251Z,15.88
2022-09-12T06:49:21.225Z,15.91
2022-09-12T06:50:21.210Z,15.95
2022-09-12T06:51:21.208Z,16.03
2022-09-12T06:52:21.202Z,16.08
2022-09-12T06:53:21.192Z,16.16
2022-09-12T06:54:21.195Z,16.26
2022-09-12T06:55:25.791Z,16.42
2022-09-12T06:56:21.151Z,16.66
2022-09-12T06:57:21.140Z,16.99
2022-09-12T06:58:21.139Z,17.36
2022-09-12T06:59:21.123Z,17.70
2022-09-12T07:00:21.102Z,18.01
2022-09-12T07:01:21.115Z,18.28
2022-09-12T07:02:21.120Z,18.51
2022-09-12T07:03:21.079Z,18.75
2022-09-12T07:04:21.103Z,19.01
2022-09-12T07:05:21.045Z,19.27
2022-09-12T07:06:21.038Z,19.47
2022-09-12T07:07:21.024Z,19.67
2022-09-12T07:08:21.040Z,19.83
2022-09-12T07:09:21.077Z,20.04
2022-09-12T07:10:22.390Z,20.27
2022-09-12T07:11:20.983Z,20.46
2022-09-12T07:12:20.974Z,20.61
2022-09-12T07:13:21.096Z,20.79
2022-09-12T07:14:20.975Z,20.97
2022-09-12T07:15:20.962Z,21.16
2022-09-12T07:16:21.089Z,21.30
2022-09-12T07:17:20.934Z,21.43
2022-09-12T07:18:20.925Z,21.55
2022-09-12T07:19:20.937Z,21.71
2022-09-12T07:20:20.898Z,21.85
2022-09-12T07:21:20.893Z,22.01
2022-09-12T07:22:20.868Z,22.14
2022-09-12T07:23:20.857Z,22.27
2022-09-12T07:24:20.858Z,22.45
2022-09-12T07:25:20.846Z,22.63
2022-09-12T07:26:20.836Z,22.82
2022-09-12T07:27:20.818Z,22.96
2022-09-12T07:28:20.808Z,23.15
2022-09-12T07:29:37.627Z,23.31
2022-09-12T07:30:20.786Z,23.39
2022-09-12T07:31:20.773Z,23.56
2022-09-12T07:32:20.767Z,23.72
2022-09-12T07:33:20.772Z,23.89
2022-09-12T07:34:20.759Z,24.04
2022-09-12T07:35:21.689Z,24.18
2022-09-12T07:36:20.721Z,24.33
2022-09-12T07:37:20.705Z,24.39
2022-09-12T07:38:20.704Z,24.55
2022-09-12T07:39:20.705Z,24.70
2022-09-12T07:40:20.756Z,24.82
2022-09-12T07:41:20.668Z,24.97
2022-09-12T07:42:20.654Z,25.07
2022-09-12T07:43:20.666Z,25.19
2022-09-12T07:44:20.647Z,25.31
2022-09-12T07:45:20.658Z,25.44
2022-09-12T07:46:20.677Z,25.60
2022-09-12T07:47:20.609Z,25.71
2022-09-12T07:48:20.598Z,25.79
2022-09-12T07:49:20.604Z,25.90
2022-09-12T07:50:20.614Z,25.98
2022-09-12T07:51:20.568Z,26.11
2022-09-12T07:52:20.550Z,26.29
2022-09-12T07:53:20.656Z,26.47
2022-09-12T07:54:20.558Z,26.59
2022-09-12T07:55:20.523Z,26.75
2022-09-12T07:56:20.580Z,26.87
2022-09-12T07:57:20.501Z,27.01
2022-09-12T07:58:20.522Z,27.15
2022-09-12T07:59:41.392Z,27.24
2022-09-12T08:00:20.476Z,27.31
2022-09-12T08:01:20.507Z,27.45
2022-09-12T08:02:20.719Z,27.46
2022-09-12T08:03:20.444Z,27.45
2022-09-12T08:04:20.459Z,27.69
2022-09-12T08:05:20.410Z,27.88
2022-09-12T08:06:20.409Z,28.05
2022-09-12T08:07:20.396Z,28.20
2022-09-12T08:08:20.388Z,28.38
2022-09-12T08:09:20.389Z,28.27
2022-09-12T08:10:20.367Z,26.91
2022-09-12T08:11:20.348Z,25.64
2022-09-12T08:12:20.358Z,25.24
2022-09-12T08:13:20.338Z,26.29
2022-09-12T08:14:20.596Z,26.96
2022-09-12T08:15:20.306Z,27.48
2022-09-12T08:16:20.601Z,27.91
2022-09-12T08:17:20.345Z,28.18
2022-09-12T08:18:20.283Z,28.35
2022-09-12T08:19:20.593Z,28.51
2022-09-12T08:20:20.455Z,28.74
2022-09-12T08:21:20.246Z,29.02
2022-09-12T08:22:20.241Z,29.05
2022-09-12T08:23:20.241Z,29.14
2022-09-12T08:24:20.247Z,27.99
2022-09-12T08:25:20.231Z,27.90
2022-09-12T08:26:20.208Z,28.48
2022-09-12T08:27:20.190Z,27.12
2022-09-12T08:28:20.182Z,26.73
2022-09-12T08:29:20.174Z,27.76
2022-09-12T08:30:20.200Z,28.39
2022-09-12T08:31:20.163Z,28.83
2022-09-12T08:32:20.167Z,29.05
2022-09-12T08:33:20.131Z,28.88
2022-09-12T08:34:20.136Z,28.51
2022-09-12T08:35:20.102Z,27.71
2022-09-12T08:36:20.113Z,26.46
2022-09-12T08:37:20.100Z,25.89
2022-09-12T08:38:20.086Z,25.34
2022-09-12T08:39:20.096Z,25.05
2022-09-12T08:40:20.100Z,24.79
2022-09-12T08:41:20.046Z,24.41
2022-09-12T08:42:20.048Z,23.79
2022-09-12T08:43:20.036Z,23.31
2022-09-12T08:44:20.036Z,22.86
2022-09-12T08:45:20.004Z,22.52
2022-09-12T08:46:20.055Z,22.38
2022-09-12T08:47:19.994Z,22.45
2022-09-12T08:48:19.989Z,22.46
2022-09-12T08:49:20.028Z,22.39
2022-09-12T08:50:20.053Z,22.27
2022-09-12T08:51:19.941Z,22.11
2022-09-12T08:52:19.948Z,21.91
2022-09-12T08:53:19.930Z,21.82
2022-09-12T08:54:19.944Z,21.71
2022-09-12T08:55:19.899Z,21.63
2022-09-12T08:56:20.003Z,21.53
2022-09-12T08:57:19.881Z,21.37
2022-09-12T08:58:19.884Z,21.27
2022-09-12T08:59:20.196Z,21.15
2022-09-12T09:00:19.913Z,21.01
2022-09-12T09:01:19.930Z,20.87
2022-09-12T09:02:19.889Z,20.76
2022-09-12T09:03:19.821Z,20.81
2022-09-12T09:04:19.828Z,20.83
2022-09-12T09:05:19.810Z,20.85
2022-09-12T09:06:19.887Z,20.85
2022-09-12T09:07:19.777Z,20.82
2022-09-12T09:08:19.769Z,20.79
2022-09-12T09:09:19.769Z,20.78
2022-09-12T09:10:19.747Z,20.78
2022-09-12T09:11:19.736Z,20.79
2022-09-12T09:12:19.737Z,20.81
2022-09-12T09:13:19.719Z,20.78
2022-09-12T09:14:19.714Z,20.71
2022-09-12T09:15:19.777Z,20.66
2022-09-12T09:16:19.773Z,20.66
2022-09-12T09:17:19.680Z,20.60
2022-09-12T09:18:19.678Z,20.56
2022-09-12T09:19:19.666Z,20.51
2022-09-12T09:20:21.157Z,20.48
2022-09-12T09:21:19.634Z,20.57
2022-09-12T09:22:19.620Z,20.51
2022-09-12T09:23:19.731Z,20.37
2022-09-12T09:24:19.615Z,20.25
2022-09-12T09:25:22.707Z,20.17
2022-09-12T09:26:19.576Z,20.26
2022-09-12T09:27:37.298Z,20.19
2022-09-12T09:28:19.571Z,20.08
2022-09-12T09:29:19.562Z,20.05
2022-09-12T09:30:19.554Z,19.98
2022-09-12T09:31:19.616Z,19.89
2022-09-12T09:32:19.510Z,19.83
2022-09-12T09:33:19.515Z,19.80
2022-09-12T09:34:19.510Z,19.75
2022-09-12T09:35:19.504Z,19.71
2022-09-12T09:36:19.472Z,19.68
2022-09-12T09:37:19.477Z,19.67
2022-09-12T09:38:19.448Z,19.65
2022-09-12T09:39:19.455Z,19.61
2022-09-12T09:40:19.542Z,19.60
2022-09-12T09:41:19.432Z,19.53
2022-09-12T09:42:19.409Z,19.52
2022-09-12T09:43:19.409Z,19.49
2022-09-12T09:44:19.399Z,19.49
2022-09-12T09:45:19.379Z,19.49
2022-09-12T09:46:19.434Z,19.49
2022-09-12T09:47:19.381Z,19.61
2022-09-12T09:48:19.362Z,19.75
2022-09-12T09:49:19.363Z,19.72
2022-09-12T09:50:19.321Z,19.79
2022-09-12T09:51:19.318Z,19.83
2022-09-12T09:52:19.315Z,19.89
2022-09-12T09:53:19.307Z,19.94
2022-09-12T09:54:19.301Z,19.95
2022-09-12T09:55:19.275Z,19.98
2022-09-12T09:56:21.509Z,19.97
2022-09-12T09:57:19.273Z,19.92
2022-09-12T09:58:19.271Z,19.86
2022-09-12T09:59:19.245Z,19.86
2022-09-12T10:00:19.230Z,19.83
2022-09-12T10:01:19.255Z,19.85
2022-09-12T10:02:23.260Z,19.90
2022-09-12T10:03:19.221Z,19.97
2022-09-12T10:04:19.211Z,19.94
2022-09-12T10:05:19.186Z,19.87
2022-09-12T10:06:19.152Z,19.85
2022-09-12T10:07:19.149Z,19.80
2022-09-12T10:08:19.139Z,19.79
2022-09-12T10:09:19.143Z,19.76
2022-09-12T10:10:19.129Z,19.76
2022-09-12T10:11:19.105Z,19.72
2022-09-12T10:12:19.088Z,19.71
2022-09-12T10:13:19.092Z,19.70
2022-09-12T10:14:19.080Z,19.67
2022-09-12T10:15:19.062Z,19.64
2022-09-12T10:16:19.104Z,19.61
2022-09-12T10:17:19.046Z,19.60
2022-09-12T10:18:19.029Z,19.55
2022-09-12T10:19:19.034Z,19.49
2022-09-12T10:20:21.894Z,19.46
2022-09-12T10:21:19.000Z,19.46
2022-09-12T10:22:19.004Z,19.55
2022-09-12T10:23:18.979Z,19.60
2022-09-12T10:24:18.986Z,19.64
2022-09-12T10:25:18.969Z,19.68
2022-09-12T10:26:18.946Z,19.75
2022-09-12T10:27:18.949Z,19.79
2022-09-12T10:28:18.923Z,19.79
2022-09-12T10:29:18.930Z,19.76
2022-09-12T10:30:18.901Z,19.76
2022-09-12T10:31:18.965Z,19.78
2022-09-12T10:32:18.887Z,19.80
2022-09-12T10:33:18.881Z,19.87
2022-09-12T10:34:18.901Z,19.92
2022-09-12T10:35:18.856Z,20.00
2022-09-12T10:36:18.841Z,20.04
2022-09-12T10:37:18.830Z,20.05
2022-09-12T10:38:18.826Z,19.87
2022-09-12T10:39:18.847Z,19.80
2022-09-12T10:40:18.836Z,19.83
2022-09-12T10:41:18.796Z,19.85
2022-09-12T10:42:23.297Z,19.89
2022-09-12T10:43:18.769Z,19.94
2022-09-12T10:44:18.773Z,19.98
2022-09-12T10:45:18.767Z,20.04
2022-09-12T10:46:18.808Z,20.19
2022-09-12T10:47:18.727Z,20.42
2022-09-12T10:48:18.716Z,20.60
2022-09-12T10:49:18.714Z,20.64
2022-09-12T10:50:22.808Z,20.53
2022-09-12T10:51:18.693Z,20.41
2022-09-12T10:52:18.682Z,20.34
2022-09-12T10:53:18.680Z,20.31
2022-09-12T10:54:18.660Z,20.30
2022-09-12T10:55:18.695Z,20.26
2022-09-12T10:56:18.635Z,20.16
2022-09-12T10:57:18.672Z,20.22
2022-09-12T10:58:18.657Z,20.25
2022-09-12T10:59:20.237Z,20.26
2022-09-12T11:00:18.658Z,20.27
2022-09-12T11:01:18.706Z,20.30
2022-09-12T11:02:18.625Z,20.34
2022-09-12T11:03:18.562Z,20.40
2022-09-12T11:04:18.661Z,20.44
2022-09-12T11:05:22.567Z,20.48
2022-09-12T11:06:18.590Z,20.53
2022-09-12T11:07:18.526Z,20.56
2022-09-12T11:08:18.518Z,20.56
2022-09-12T11:09:18.603Z,20.60
2022-09-12T11:10:18.500Z,20.63
2022-09-12T11:11:18.479Z,20.64
2022-09-12T11:12:18.477Z,20.63
2022-09-12T11:13:18.604Z,20.66
2022-09-12T11:14:18.460Z,20.64
2022-09-12T11:15:18.440Z,20.63
2022-09-12T11:16:18.662Z,20.66
2022-09-12T11:17:18.419Z,20.71
2022-09-12T11:18:18.399Z,20.75
2022-09-12T11:19:18.598Z,20.75
2022-09-12T11:20:19.300Z,20.72
2022-09-12T11:21:18.445Z,20.76
2022-09-12T11:22:18.594Z,20.68
2022-09-12T11:23:18.613Z,20.60
2022-09-12T11:24:18.464Z,20.56
2022-09-12T11:25:18.399Z,20.51
2022-09-12T11:26:18.332Z,20.58
2022-09-12T11:27:18.317Z,20.69
2022-09-12T11:28:18.301Z,20.76
2022-09-12T11:29:18.310Z,20.79
2022-09-12T11:30:18.609Z,20.81
2022-09-12T11:31:18.431Z,20.87
2022-09-12T11:32:18.266Z,21.00
2022-09-12T11:33:18.256Z,21.00
2022-09-12T11:34:18.248Z,20.91
2022-09-12T11:35:18.327Z,20.96
2022-09-12T11:36:18.216Z,20.91
2022-09-12T11:37:18.340Z,20.78
2022-09-12T11:38:18.187Z,20.66
2022-09-12T11:39:18.182Z,20.53
2022-09-12T11:40:18.272Z,20.50
2022-09-12T11:41:18.174Z,20.53
2022-09-12T11:42:18.149Z,20.51
2022-09-12T11:43:18.143Z,20.48
2022-09-12T11:44:18.160Z,20.48
2022-09-12T11:45:18.127Z,20.53
2022-09-12T11:46:18.294Z,20.54
2022-09-12T11:47:18.100Z,20.56
2022-09-12T11:48:18.083Z,20.57
2022-09-12T11:49:18.095Z,20.64
2022-09-12T11:50:18.075Z,20.73
2022-09-12T11:51:18.064Z,20.83
2022-09-12T11:52:18.049Z,20.93
2022-09-12T11:53:18.068Z,20.96
2022-09-12T11:54:18.045Z,21.01
2022-09-12T11:55:18.033Z,21.09
2022-09-12T11:56:18.026Z,21.19
2022-09-12T11:57:17.998Z,21.27
2022-09-12T11:58:17.984Z,21.33
2022-09-12T11:59:17.989Z,21.38
2022-09-12T12:00:17.963Z,21.45
2022-09-12T12:01:17.960Z,21.53
2022-09-12T12:02:18.003Z,21.63
2022-09-12T12:03:18.081Z,21.66
2022-09-12T12:04:17.927Z,21.67
2022-09-12T12:05:17.917Z,21.70
2022-09-12T12:06:17.924Z,21.75
2022-09-12T12:07:17.902Z,21.74
2022-09-12T12:08:17.890Z,21.79
2022-09-12T12:09:17.885Z,21.82
2022-09-12T12:10:17.857Z,21.73
2022-09-12T12:11:17.854Z,21.64
2022-09-12T12:12:17.838Z,21.59
2022-09-12T12:13:17.851Z,21.55
2022-09-12T12:14:17.829Z,21.51
2022-09-12T12:15:17.802Z,21.49
2022-09-12T12:16:17.855Z,21.46
2022-09-12T12:17:17.803Z,21.45
2022-09-12T12:18:17.789Z,21.42
2022-09-12T12:19:17.767Z,21.38
2022-09-12T12:20:17.767Z,21.28
2022-09-12T12:21:17.743Z,21.19
2022-09-12T12:22:17.735Z,21.18
2022-09-12T12:23:17.742Z,21.16
2022-09-12T12:24:17.712Z,21.18
2022-09-12T12:25:21.428Z,21.11
2022-09-12T12:26:17.701Z,21.09
2022-09-12T12:27:17.682Z,21.03
2022-09-12T12:28:17.685Z,21.00
2022-09-12T12:29:17.660Z,21.03
2022-09-12T12:30:17.666Z,21.05
2022-09-12T12:31:17.707Z,21.00
2022-09-12T12:32:17.624Z,21.05
2022-09-12T12:33:17.634Z,21.05
2022-09-12T12:34:17.605Z,21.11
2022-09-12T12:35:17.598Z,21.16
2022-09-12T12:36:17.599Z,21.21
2022-09-12T12:37:17.583Z,21.26
2022-09-12T12:38:17.575Z,21.33
2022-09-12T12:39:17.556Z,21.48
2022-09-12T12:40:17.581Z,21.64
2022-09-12T12:41:17.555Z,21.74
2022-09-12T12:42:20.082Z,21.85
2022-09-12T12:43:17.527Z,21.86
2022-09-12T12:44:17.497Z,21.85
2022-09-12T12:45:17.500Z,21.82
2022-09-12T12:46:17.582Z,21.68
2022-09-12T12:47:17.476Z,21.59
2022-09-12T12:48:17.475Z,21.59
2022-09-12T12:49:17.450Z,21.59
2022-09-12T12:50:17.450Z,21.61
2022-09-12T12:51:17.439Z,21.64
2022-09-12T12:52:17.429Z,21.71